createdAt,value
2019-04-28T00:02:50.791Z,101070.87
2019-04-28T00:05:54.541Z,101076.71
2019-04-28T00:08:58.693Z,101071.61
2019-04-28T00:12:02.665Z,101066.52
2019-04-28T00:15:07.119Z,101066.88
2019-04-28T00:18:11.954Z,101069.76
2019-04-28T00:21:32.037Z,101072.01
2019-04-28T00:24:43.120Z,101079.01
2019-04-28T00:27:46.832Z,101085.42
2019-04-28T00:30:51.718Z,101085.52
2019-04-28T00:33:55.420Z,101092.72
2019-04-28T00:37:24.240Z,101090.25
2019-04-28T00:40:28.252Z,101090.77
2019-04-28T00:43:32.036Z,101088.92
2019-04-28T00:46:36.995Z,101090.16
2019-04-28T00:49:46.759Z,101093.27
2019-04-28T00:52:51.790Z,101094.94
2019-04-28T00:55:56.030Z,101094.53
2019-04-28T00:59:01.285Z,101099.55
2019-04-28T01:02:11.579Z,101099.38
2019-04-28T01:05:15.454Z,101095.78
2019-04-28T01:08:20.928Z,101098.97
2019-04-28T01:11:24.653Z,101097.76
2019-04-28T01:14:28.376Z,101102.45
2019-04-28T01:17:40.560Z,101099.09
2019-04-28T01:20:46.016Z,101102.89
2019-04-28T01:23:50.164Z,101102.17
2019-04-28T01:26:55.959Z,101102.35
2019-04-28T01:30:08.021Z,101107.13
2019-04-28T01:33:12.331Z,101105.14
2019-04-28T01:36:16.588Z,101108.84
2019-04-28T01:39:20.293Z,101105.54
2019-04-28T01:42:24.314Z,101104.73
2019-04-28T01:45:29.996Z,101116.14
2019-04-28T01:48:33.882Z,101118.14
2019-04-28T01:51:37.719Z,101120.64
2019-04-28T01:54:41.749Z,101118.34
2019-04-28T01:57:45.449Z,101130.92
2019-04-28T02:00:50.547Z,101129.72
2019-04-28T02:03:54.749Z,101141.90
2019-04-28T02:06:59.874Z,101133.29
2019-04-28T02:10:03.882Z,101132.77
2019-04-28T02:13:09.593Z,101140.00
2019-04-28T02:16:13.405Z,101136.14
2019-04-28T02:19:17.119Z,101128.87
2019-04-28T02:22:26.156Z,101134.30
2019-04-28T02:25:29.912Z,101138.47
2019-04-28T02:28:33.562Z,101141.13
2019-04-28T02:31:37.631Z,101143.17
2019-04-28T02:34:41.512Z,101140.86
2019-04-28T02:37:45.233Z,101143.65
2019-04-28T02:40:50.454Z,101148.14
2019-04-28T02:43:54.338Z,101152.64
2019-04-28T02:47:00.717Z,101154.05
2019-04-28T02:50:27.777Z,101145.17
2019-04-28T02:53:34.344Z,101154.16
2019-04-28T02:56:40.950Z,101160.00
2019-04-28T02:59:44.853Z,101164.56
2019-04-28T03:02:51.339Z,101160.27
2019-04-28T03:05:54.807Z,101164.11
2019-04-28T03:09:00.312Z,101170.52
2019-04-28T03:12:04.338Z,101173.34
2019-04-28T03:15:10.329Z,101170.25
2019-04-28T03:18:13.939Z,101165.81
2019-04-28T03:21:17.793Z,101170.30
2019-04-28T03:24:22.381Z,101173.02
2019-04-28T03:27:36.724Z,101170.70
2019-04-28T03:31:06.603Z,101167.52
2019-04-28T03:34:05.327Z,101167.80
2019-04-28T03:37:11.301Z,101167.69
2019-04-28T03:40:14.485Z,101174.45
2019-04-28T03:43:20.985Z,101166.88
2019-04-28T03:46:26.843Z,101167.62
2019-04-28T03:49:34.895Z,101177.69
2019-04-28T03:52:41.260Z,101177.47
2019-04-28T03:55:44.645Z,101184.92
2019-04-28T03:58:50.471Z,101182.84
2019-04-28T04:01:59.362Z,101180.93
2019-04-28T04:05:00.796Z,101180.59
2019-04-28T04:08:04.775Z,101186.48
2019-04-28T04:11:20.137Z,101185.64
2019-04-28T04:14:31.866Z,101188.59
2019-04-28T04:17:41.940Z,101188.41
2019-04-28T04:20:45.647Z,101189.58
2019-04-28T04:23:50.972Z,101196.19
2019-04-28T04:26:54.874Z,101192.87
2019-04-28T04:30:01.761Z,101198.39
2019-04-28T04:33:04.690Z,101196.25
2019-04-28T04:36:10.889Z,101199.31
2019-04-28T04:39:14.106Z,101199.29
2019-04-28T04:42:20.465Z,101209.24
2019-04-28T04:45:23.864Z,101201.09
2019-04-28T04:48:27.571Z,101206.67
2019-04-28T04:51:31.822Z,101206.84
2019-04-28T04:54:36.884Z,101208.98
2019-04-28T04:57:40.956Z,101211.27
2019-04-28T05:00:52.406Z,101222.91
2019-04-28T05:03:59.632Z,101224.56
2019-04-28T05:07:03.396Z,101229.57
2019-04-28T05:10:07.292Z,101231.41
2019-04-28T05:13:11.340Z,101239.99
2019-04-28T05:16:15.382Z,101241.72
2019-04-28T05:19:19.874Z,101252.84
2019-04-28T05:22:25.325Z,101253.97
2019-04-28T05:25:39.593Z,101257.48
2019-04-28T05:28:50.475Z,101256.16
2019-04-28T05:31:50.382Z,101258.64
2019-04-28T05:34:54.218Z,101265.32
2019-04-28T05:37:59.767Z,101260.59
2019-04-28T05:41:03.564Z,101260.77
2019-04-28T05:44:07.673Z,101260.77
2019-04-28T05:47:11.718Z,101272.96
2019-04-28T05:50:21.924Z,101278.44
2019-04-28T05:53:40.341Z,101279.14
2019-04-28T05:57:13.213Z,101291.56
2019-04-28T06:00:29.687Z,101295.13
2019-04-28T06:03:33.667Z,101300.31
2019-04-28T06:06:40.566Z,101308.77
2019-04-28T06:09:47.800Z,101313.14
2019-04-28T06:12:51.790Z,101318.27
2019-04-28T06:15:55.505Z,101318.03
2019-04-28T06:19:00.057Z,101323.55
2019-04-28T06:22:04.154Z,101320.92
2019-04-28T06:25:08.081Z,101323.67
2019-04-28T06:28:11.789Z,101326.27
2019-04-28T06:31:15.848Z,101333.28
2019-04-28T06:34:19.568Z,101340.03
2019-04-28T06:37:23.275Z,101346.08
2019-04-28T06:40:27.061Z,101347.74
2019-04-28T06:43:30.759Z,101343.94
2019-04-28T06:46:34.472Z,101345.65
2019-04-28T06:49:38.290Z,101353.27
2019-04-28T06:52:41.995Z,101351.38
2019-04-28T06:55:45.762Z,101362.68
2019-04-28T06:58:58.910Z,101361.81
2019-04-28T07:01:54.911Z,101363.11
2019-04-28T07:05:02.367Z,101360.50
2019-04-28T07:08:04.318Z,101371.66
2019-04-28T07:11:08.018Z,101383.78
2019-04-28T07:14:11.741Z,101382.95
2019-04-28T07:17:15.457Z,101393.23
2019-04-28T07:20:37.395Z,101397.05
2019-04-28T07:23:42.480Z,101405.71
2019-04-28T07:26:46.201Z,101404.54
2019-04-28T07:29:50.227Z,101397.41
2019-04-28T07:32:54.032Z,101389.33
2019-04-28T07:35:57.732Z,101396.19
2019-04-28T07:39:01.707Z,101391.00
2019-04-28T07:42:05.595Z,101399.45
2019-04-28T07:45:10.251Z,101403.52
2019-04-28T07:48:13.937Z,101411.00
2019-04-28T07:51:18.416Z,101419.23
2019-04-28T07:54:22.417Z,101423.20
2019-04-28T07:57:26.137Z,101430.79
2019-04-28T08:00:30.630Z,101442.09
2019-04-28T08:03:34.352Z,101443.05
2019-04-28T08:06:38.152Z,101451.00
2019-04-28T08:09:41.934Z,101453.12
2019-04-28T08:12:45.645Z,101456.36
2019-04-28T08:15:49.436Z,101465.90
2019-04-28T08:18:53.189Z,101468.59
2019-04-28T08:21:56.889Z,101471.18
2019-04-28T08:25:00.638Z,101473.13
2019-04-28T08:28:04.422Z,101472.31
2019-04-28T08:31:09.988Z,101477.52
2019-04-28T08:34:13.859Z,101491.06
2019-04-28T08:37:17.571Z,101493.83
2019-04-28T08:40:21.672Z,101490.67
2019-04-28T08:43:25.372Z,101490.88
2019-04-28T08:46:29.389Z,101495.36
2019-04-28T08:49:33.111Z,101501.99
2019-04-28T08:52:37.094Z,101492.36
2019-04-28T08:55:40.809Z,101492.56
2019-04-28T08:58:44.548Z,101492.40
2019-04-28T09:01:48.269Z,101486.23
2019-04-28T09:04:51.978Z,101488.27
2019-04-28T09:07:55.678Z,101485.34
2019-04-28T09:10:59.668Z,101489.57
2019-04-28T09:14:03.448Z,101504.14
2019-04-28T09:17:07.469Z,101510.20
2019-04-28T09:20:11.885Z,101512.44
2019-04-28T09:23:15.659Z,101516.64
2019-04-28T09:26:19.707Z,101527.09
2019-04-28T09:29:23.743Z,101532.13
2019-04-28T09:32:27.832Z,101540.80
2019-04-28T09:35:31.750Z,101544.98
2019-04-28T09:38:35.455Z,101548.22
2019-04-28T09:41:41.480Z,101552.16
2019-04-28T09:44:45.184Z,101553.33
2019-04-28T09:47:48.938Z,101548.67
2019-04-28T09:50:53.044Z,101552.03
2019-04-28T09:53:56.755Z,101550.56
2019-04-28T09:57:00.509Z,101552.69
2019-04-28T10:00:05.135Z,101557.45
2019-04-28T10:03:09.111Z,101562.78
2019-04-28T10:06:12.945Z,101551.28
2019-04-28T10:09:16.616Z,101549.88
2019-04-28T10:12:27.001Z,101561.64
2019-04-28T10:15:26.083Z,101576.53
2019-04-28T10:18:30.098Z,101577.59
2019-04-28T10:21:34.130Z,101576.95
2019-04-28T10:24:37.847Z,101579.39
2019-04-28T10:27:41.962Z,101573.51
2019-04-28T10:30:46.067Z,101584.73
2019-04-28T10:33:53.515Z,101593.13
2019-04-28T10:36:57.580Z,101590.47
2019-04-28T10:40:05.392Z,101589.89
2019-04-28T10:43:09.189Z,101589.89
2019-04-28T10:46:12.965Z,101588.23
2019-04-28T10:49:16.762Z,101590.83
2019-04-28T10:52:20.541Z,101593.64
2019-04-28T10:55:24.246Z,101595.63
2019-04-28T10:58:27.963Z,101596.58
2019-04-28T11:01:31.687Z,101600.27
2019-04-28T11:04:53.321Z,101595.89
2019-04-28T11:07:57.265Z,101592.14
2019-04-28T11:11:04.162Z,101596.91
2019-04-28T11:14:08.144Z,101599.56
2019-04-28T11:17:12.111Z,101601.17
2019-04-28T11:20:15.970Z,101606.76
2019-04-28T11:23:19.666Z,101602.64
2019-04-28T11:26:23.377Z,101606.97
2019-04-28T11:29:27.089Z,101611.45
2019-04-28T11:32:30.838Z,101602.91
2019-04-28T11:35:35.696Z,101600.91
2019-04-28T11:38:39.764Z,101606.31
2019-04-28T11:41:43.561Z,101610.59
2019-04-28T11:44:47.607Z,101607.55
2019-04-28T11:47:51.321Z,101611.14
2019-04-28T11:50:55.109Z,101614.98
2019-04-28T11:53:58.806Z,101617.44
2019-04-28T11:57:02.923Z,101624.06
2019-04-28T12:00:15.086Z,101627.34
2019-04-28T12:03:18.797Z,101624.20
2019-04-28T12:06:22.842Z,101621.95
2019-04-28T12:09:37.678Z,101612.73
2019-04-28T12:13:00.987Z,101614.84
2019-04-28T12:16:22.664Z,101617.95
2019-04-28T12:19:35.932Z,101622.00
2019-04-28T12:22:39.655Z,101622.42
2019-04-28T12:25:43.410Z,101624.03
2019-04-28T12:28:47.102Z,101627.94
2019-04-28T12:31:51.255Z,101632.44
2019-04-28T12:34:55.018Z,101628.95
2019-04-28T12:37:58.731Z,101626.87
2019-04-28T12:41:02.449Z,101631.19
2019-04-28T12:44:06.305Z,101632.12
2019-04-28T12:47:10.025Z,101644.93
2019-04-28T12:50:22.906Z,101645.17
2019-04-28T12:53:26.972Z,101641.58
2019-04-28T12:56:30.684Z,101649.62
2019-04-28T12:59:40.866Z,101659.70
2019-04-28T13:03:02.310Z,101659.94
2019-04-28T13:06:08.362Z,101665.02
2019-04-28T13:09:12.239Z,101663.80
2019-04-28T13:12:15.953Z,101665.47
2019-04-28T13:15:19.661Z,101666.80
2019-04-28T13:18:23.725Z,101678.23
2019-04-28T13:21:27.499Z,101673.89
2019-04-28T13:24:31.222Z,101675.55
2019-04-28T13:27:34.942Z,101674.07
2019-04-28T13:30:38.658Z,101669.55
2019-04-28T13:33:55.307Z,101670.23
2019-04-28T13:36:47.852Z,101674.13
2019-04-28T13:39:58.728Z,101677.86
2019-04-28T13:43:02.438Z,101677.49
2019-04-28T13:46:06.221Z,101678.52
2019-04-28T13:49:11.720Z,101682.42
2019-04-28T13:52:15.436Z,101676.75
2019-04-28T13:55:37.310Z,101673.47
2019-04-28T13:58:43.083Z,101676.59
2019-04-28T14:02:04.549Z,101673.14
2019-04-28T14:05:24.529Z,101669.78
2019-04-28T14:08:28.319Z,101672.12
2019-04-28T14:11:32.034Z,101669.43
2019-04-28T14:14:35.758Z,101673.42
2019-04-28T14:17:39.854Z,101676.52
2019-04-28T14:20:43.533Z,101684.25
2019-04-28T14:23:47.308Z,101675.39
2019-04-28T14:26:51.380Z,101662.50
2019-04-28T14:29:55.453Z,101672.84
2019-04-28T14:32:59.198Z,101670.98
2019-04-28T14:36:02.920Z,101681.65
2019-04-28T14:39:09.017Z,101676.31
2019-04-28T14:42:12.813Z,101677.27
2019-04-28T14:45:16.535Z,101681.45
2019-04-28T14:48:20.257Z,101678.09
2019-04-28T14:51:23.961Z,101681.72
2019-04-28T14:54:27.731Z,101686.42
2019-04-28T14:57:31.512Z,101687.05
2019-04-28T15:00:39.952Z,101684.22
2019-04-28T15:03:46.432Z,101690.48
2019-04-28T15:06:58.002Z,101691.55
2019-04-28T15:10:06.344Z,101684.58
2019-04-28T15:13:10.142Z,101693.58
2019-04-28T15:16:14.224Z,101691.52
2019-04-28T15:19:18.194Z,101692.73
2019-04-28T15:22:22.551Z,101690.67
2019-04-28T15:25:26.268Z,101696.80
2019-04-28T15:28:29.977Z,101696.08
2019-04-28T15:31:33.694Z,101699.57
2019-04-28T15:34:37.439Z,101695.58
2019-04-28T15:37:41.147Z,101704.37
2019-04-28T15:40:45.146Z,101697.27
2019-04-28T15:43:49.742Z,101709.83
2019-04-28T15:46:53.539Z,101708.20
2019-04-28T15:50:00.749Z,101705.61
2019-04-28T15:53:05.245Z,101705.84
2019-04-28T15:56:14.633Z,101708.19
2019-04-28T15:59:19.544Z,101712.89
2019-04-28T16:02:24.015Z,101713.88
2019-04-28T16:05:27.837Z,101714.77
2019-04-28T16:08:31.554Z,101716.20
2019-04-28T16:11:35.274Z,101718.24
2019-04-28T16:14:39.442Z,101714.06
2019-04-28T16:17:43.169Z,101723.84
2019-04-28T16:20:46.887Z,101711.16
2019-04-28T16:23:50.886Z,101709.77
2019-04-28T16:26:54.649Z,101711.84
2019-04-28T16:29:58.356Z,101712.39
2019-04-28T16:33:02.083Z,101712.67
2019-04-28T16:36:06.111Z,101717.99
2019-04-28T16:39:09.916Z,101718.43
2019-04-28T16:42:13.735Z,101718.22
2019-04-28T16:45:18.646Z,101718.55
2019-04-28T16:48:22.918Z,101726.20
2019-04-28T16:51:26.895Z,101727.47
2019-04-28T16:54:30.604Z,101724.58
2019-04-28T16:57:45.072Z,101734.72
2019-04-28T17:01:15.049Z,101737.23
2019-04-28T17:04:18.847Z,101732.61
2019-04-28T17:07:22.640Z,101734.74
2019-04-28T17:10:26.349Z,101731.36
2019-04-28T17:13:30.329Z,101737.00
2019-04-28T17:16:34.864Z,101733.91
2019-04-28T17:19:39.019Z,101744.86
2019-04-28T17:22:42.823Z,101745.27
2019-04-28T17:25:46.844Z,101747.64
2019-04-28T17:28:50.909Z,101746.98
2019-04-28T17:31:54.658Z,101755.00
2019-04-28T17:34:58.502Z,101758.27
2019-04-28T17:38:06.711Z,101752.97
2019-04-28T17:41:07.820Z,101761.45
2019-04-28T17:44:11.799Z,101764.70
2019-04-28T17:47:17.158Z,101773.42
2019-04-28T17:50:21.627Z,101779.09
2019-04-28T17:53:25.698Z,101784.60
2019-04-28T17:56:29.399Z,101780.41
2019-04-28T17:59:33.397Z,101785.60
2019-04-28T18:02:55.253Z,101788.53
2019-04-28T18:06:17.616Z,101778.95
2019-04-28T18:09:14.891Z,101786.80
2019-04-28T18:12:18.680Z,101790.98
2019-04-28T18:15:47.856Z,101791.78
2019-04-28T18:19:03.831Z,101798.21
2019-04-28T18:22:07.749Z,101803.63
2019-04-28T18:25:12.236Z,101808.00
2019-04-28T18:28:15.950Z,101802.52
2019-04-28T18:31:39.371Z,101803.50
2019-04-28T18:34:48.222Z,101808.88
2019-04-28T18:37:59.745Z,101816.04
2019-04-28T18:41:21.573Z,101819.32
2019-04-28T18:44:25.586Z,101828.12
2019-04-28T18:47:30.030Z,101828.97
2019-04-28T18:50:34.031Z,101830.25
2019-04-28T18:53:38.083Z,101837.30
2019-04-28T18:56:41.929Z,101847.44
2019-04-28T18:59:45.939Z,101852.48
2019-04-28T19:02:50.005Z,101857.47
2019-04-28T19:05:54.052Z,101858.62
2019-04-28T19:09:03.016Z,101860.46
2019-04-28T19:12:22.862Z,101862.80
2019-04-28T19:15:41.460Z,101868.24
2019-04-28T19:18:45.749Z,101868.52
2019-04-28T19:21:56.144Z,101877.58
2019-04-28T19:24:59.928Z,101876.05
2019-04-28T19:28:04.030Z,101878.38
2019-04-28T19:31:08.115Z,101878.05
2019-04-28T19:34:12.100Z,101879.59
2019-04-28T19:37:15.896Z,101883.61
2019-04-28T19:40:19.974Z,101885.47
2019-04-28T19:43:24.068Z,101883.31
2019-04-28T19:46:27.779Z,101886.46
2019-04-28T19:49:31.482Z,101883.05
2019-04-28T19:52:35.200Z,101884.77
2019-04-28T19:55:43.812Z,101888.40
2019-04-28T19:58:54.915Z,101888.02
2019-04-28T20:01:58.902Z,101890.80
2019-04-28T20:05:03.061Z,101886.52
2019-04-28T20:08:07.080Z,101886.48
2019-04-28T20:11:11.067Z,101895.86
2019-04-28T20:14:14.771Z,101904.44
2019-04-28T20:17:18.480Z,101903.16
2019-04-28T20:20:22.190Z,101912.16
2019-04-28T20:23:26.415Z,101913.58
2019-04-28T20:26:30.138Z,101920.09
2019-04-28T20:29:34.315Z,101930.05
2019-04-28T20:32:45.615Z,101933.62
2019-04-28T20:35:54.277Z,101933.59
2019-04-28T20:39:01.919Z,101934.05
2019-04-28T20:42:23.636Z,101935.41
2019-04-28T20:45:27.744Z,101936.47
2019-04-28T20:48:31.777Z,101938.22
2019-04-28T20:51:35.786Z,101939.56
2019-04-28T20:54:39.501Z,101935.72
2019-04-28T20:57:43.521Z,101946.31
2019-04-28T21:00:47.530Z,101945.08
2019-04-28T21:03:51.434Z,101950.09
2019-04-28T21:06:55.298Z,101953.55
2019-04-28T21:09:59.378Z,101963.38
2019-04-28T21:13:03.220Z,101969.50
2019-04-28T21:16:07.590Z,101971.70
2019-04-28T21:19:11.334Z,101972.15
2019-04-28T21:22:15.033Z,101966.92
2019-04-28T21:25:19.003Z,101973.89
2019-04-28T21:28:23.171Z,101982.84
2019-04-28T21:31:26.885Z,101982.92
2019-04-28T21:34:30.856Z,101985.54
2019-04-28T21:37:34.564Z,101978.58
2019-04-28T21:40:38.946Z,101981.17
2019-04-28T21:43:58.116Z,101975.98
2019-04-28T21:47:08.325Z,101977.67
2019-04-28T21:50:12.111Z,101972.48
2019-04-28T21:53:15.814Z,101981.34
2019-04-28T21:56:19.528Z,101980.50
2019-04-28T21:59:23.243Z,101987.91
2019-04-28T22:02:27.039Z,101989.30
2019-04-28T22:05:30.836Z,101990.10
2019-04-28T22:08:34.604Z,101990.25
2019-04-28T22:11:38.381Z,101991.19
2019-04-28T22:14:42.164Z,101989.42
2019-04-28T22:17:45.877Z,101989.37
2019-04-28T22:20:49.667Z,101988.52
2019-04-28T22:24:08.012Z,101984.06
2019-04-28T22:27:13.769Z,101977.48
2019-04-28T22:30:18.634Z,101986.70
2019-04-28T22:33:22.370Z,101985.88
2019-04-28T22:36:27.011Z,101985.48
2019-04-28T22:39:30.981Z,101986.36
2019-04-28T22:42:34.690Z,101980.97
2019-04-28T22:45:38.386Z,101988.91
2019-04-28T22:48:42.166Z,101983.66
2019-04-28T22:51:46.158Z,101986.37
2019-04-28T22:55:09.213Z,101982.34
2019-04-28T22:58:27.398Z,101984.02
2019-04-28T23:01:34.062Z,101984.47
2019-04-28T23:04:46.501Z,101984.48
2019-04-28T23:07:50.855Z,101981.42
2019-04-28T23:10:54.623Z,101986.21
2019-04-28T23:13:58.344Z,101980.52
2019-04-28T23:17:02.407Z,101985.84
2019-04-28T23:20:09.481Z,101990.67
2019-04-28T23:23:13.461Z,101987.11
2019-04-28T23:26:17.270Z,101987.19
2019-04-28T23:29:20.988Z,101984.16
2019-04-28T23:32:24.703Z,101987.70
2019-04-28T23:35:28.492Z,101994.61
2019-04-28T23:38:32.205Z,101998.23
2019-04-28T23:41:43.961Z,101993.39
2019-04-28T23:44:47.752Z,102000.52
2019-04-28T23:47:51.458Z,102005.37
2019-04-28T23:51:05.012Z,102001.83
2019-04-28T23:54:08.774Z,102006.63
2019-04-28T23:57:12.480Z,102009.77
